Time;durP1;ratioP1;P1;durP2;ratioP2;P2;SDS_P1;SDS_P2;PMS_P1;PMS_P2;Temp;Humidity;BMP_temperature;BMP_pressure;BME280_temperature;BME280_humidity;BME280_pressure;Samples;Min_cycle;Max_cycle;Signal;HPM_P1;HPM_P2
2022/04/01 00:00:29;;;;;;;5.57;4.10;;;5.60;1.00;;;;;;5117394;28;20453;-73
2022/04/01 00:02:56;;;;;;;10.63;4.27;;;5.50;1.00;;;;;;5116939;28;20460;-72
2022/04/01 00:05:23;;;;;;;5.83;3.70;;;5.40;1.00;;;;;;5117567;28;20452;-72
2022/04/01 00:07:50;;;;;;;5.90;4.00;;;5.40;1.00;;;;;;5116556;28;20463;-72
2022/04/01 00:10:18;;;;;;;7.40;4.60;;;5.30;1.00;;;;;;5117399;28;20468;-72
2022/04/01 00:12:47;;;;;;;4.87;4.10;;;5.30;1.00;;;;;;5117518;28;20784;-72
2022/04/01 00:15:15;;;;;;;6.90;4.47;;;5.20;1.00;;;;;;5117175;28;20805;-73
2022/04/01 00:17:43;;;;;;;4.77;3.90;;;5.20;1.00;;;;;;5117234;28;20547;-72
2022/04/01 00:20:12;;;;;;;8.73;4.30;;;5.20;1.00;;;;;;5117940;28;20480;-72
2022/04/01 00:22:38;;;;;;;6.20;4.33;;;5.10;1.00;;;;;;5117751;28;20456;-72
2022/04/01 00:25:06;;;;;;;4.10;3.70;;;5.10;1.00;;;;;;5117215;28;20461;-73
2022/04/01 00:27:33;;;;;;;8.83;4.03;;;5.10;1.00;;;;;;5117069;28;20453;-73
2022/04/01 00:30:01;;;;;;;4.57;4.10;;;5.10;1.00;;;;;;5117552;28;20491;-73
2022/04/01 00:32:30;;;;;;;8.50;4.00;;;5.10;1.00;;;;;;5117166;28;20464;-73
2022/04/01 00:34:56;;;;;;;7.80;4.37;;;5.10;1.00;;;;;;5118158;28;20819;-73
2022/04/01 00:37:23;;;;;;;5.23;3.63;;;5.10;1.00;;;;;;5116961;28;20464;-72
2022/04/01 00:39:50;;;;;;;8.10;3.60;;;5.00;1.00;;;;;;5117065;28;20550;-73
2022/04/01 00:42:17;;;;;;;6.20;4.23;;;4.90;1.00;;;;;;5116629;28;20452;-73
2022/04/01 00:44:44;;;;;;;4.10;3.43;;;4.90;1.00;;;;;;5116533;28;20559;-73
2022/04/01 00:47:14;;;;;;;6.80;3.70;;;4.90;1.00;;;;;;5116373;28;20449;-71
2022/04/01 00:49:42;;;;;;;5.80;3.90;;;4.90;1.00;;;;;;5119083;28;20452;-72
2022/04/01 00:52:11;;;;;;;4.43;3.63;;;4.80;1.00;;;;;;5116409;28;20480;-72
2022/04/01 00:54:38;;;;;;;4.93;3.77;;;4.90;1.00;;;;;;5115121;28;20484;-72
2022/04/01 00:57:08;;;;;;;5.37;3.77;;;4.80;1.00;;;;;;5116450;28;20472;-73
2022/04/01 00:59:35;;;;;;;4.23;3.40;;;4.80;1.00;;;;;;5115905;28;20853;-73
2022/04/01 01:02:02;;;;;;;5.57;3.60;;;4.80;1.00;;;;;;5115813;28;20919;-72
2022/04/01 01:04:30;;;;;;;4.03;3.37;;;4.80;1.00;;;;;;5116192;28;20448;-73
2022/04/01 01:07:01;;;;;;;6.60;4.13;;;4.80;1.00;;;;;;5116004;28;20457;-72
2022/04/01 01:09:28;;;;;;;6.13;3.93;;;4.80;1.00;;;;;;5115705;28;20895;-72
2022/04/01 01:11:56;;;;;;;9.70;3.37;;;4.70;1.00;;;;;;5115798;28;20487;-73
2022/04/01 01:14:26;;;;;;;8.20;3.30;;;4.70;1.00;;;;;;5115840;28;20456;-72
2022/04/01 01:16:53;;;;;;;4.30;3.90;;;4.60;1.00;;;;;;5115805;28;20534;-73
2022/04/01 01:19:21;;;;;;;5.97;4.10;;;4.60;1.00;;;;;;5115954;28;20463;-73
2022/04/01 01:21:52;;;;;;;5.30;3.97;;;4.60;1.00;;;;;;5115712;28;20476;-72
2022/04/01 01:24:36;;;;;;;4.77;3.60;;;4.60;1.00;;;;;;5115574;28;20441;-71
2022/04/01 01:27:05;;;;;;;3.83;3.53;;;4.60;1.00;;;;;;5115592;28;20475;-72
2022/04/01 01:29:34;;;;;;;4.20;3.80;;;4.50;1.00;;;;;;5116614;28;20456;-73
2022/04/01 01:32:03;;;;;;;4.97;3.87;;;4.50;1.00;;;;;;5116618;28;20477;-73
2022/04/01 01:34:32;;;;;;;7.20;3.80;;;4.40;1.00;;;;;;5117431;28;20745;-73
2022/04/01 01:37:00;;;;;;;7.27;3.70;;;4.40;1.00;;;;;;5115908;28;20461;-73
2022/04/01 01:39:26;;;;;;;5.10;4.00;;;4.40;1.00;;;;;;5115647;28;20444;-71
2022/04/01 01:41:56;;;;;;;4.30;3.87;;;4.40;1.00;;;;;;5116015;28;20475;-73
2022/04/01 01:44:24;;;;;;;5.43;3.80;;;4.40;1.00;;;;;;5115766;28;20577;-74
2022/04/01 01:46:51;;;;;;;4.30;3.90;;;4.30;1.00;;;;;;5116089;28;20453;-72
2022/04/01 01:49:20;;;;;;;5.37;4.27;;;4.30;1.00;;;;;;5116335;28;20453;-73
2022/04/01 01:54:49;;;;;;;7.23;4.17;;;4.30;1.00;;;;;;5116036;28;20503;-73
2022/04/01 01:57:20;;;;;;;6.10;4.00;;;4.30;1.00;;;;;;5116284;28;20531;-71
2022/04/01 01:59:47;;;;;;;6.17;3.87;;;4.30;1.00;;;;;;5115970;28;20456;-72
2022/04/01 02:02:14;;;;;;;6.00;4.17;;;4.20;1.00;;;;;;5115949;28;20467;-72
2022/04/01 02:04:42;;;;;;;4.63;3.97;;;4.20;1.00;;;;;;5116191;28;20476;-72
2022/04/01 02:07:10;;;;;;;5.83;4.00;;;4.20;1.00;;;;;;5120062;28;20456;-72
2022/04/01 02:09:37;;;;;;;4.97;4.20;;;4.20;1.00;;;;;;5120149;28;20463;-72
2022/04/01 02:12:05;;;;;;;7.60;4.37;;;4.20;1.00;;;;;;5120197;28;20484;-72
2022/04/01 02:14:34;;;;;;;5.07;4.10;;;4.10;1.00;;;;;;5119792;28;20521;-72
2022/04/01 02:17:01;;;;;;;5.90;4.20;;;4.10;1.00;;;;;;5119560;28;20456;-72
2022/04/01 02:19:30;;;;;;;5.67;3.60;;;4.10;1.00;;;;;;5120319;28;20452;-73
2022/04/01 02:21:57;;;;;;;4.67;4.17;;;4.00;1.00;;;;;;5120176;28;20543;-73
2022/04/01 02:24:25;;;;;;;5.63;4.37;;;4.00;1.00;;;;;;5120196;28;20456;-73
2022/04/01 02:26:52;;;;;;;4.93;4.00;;;4.00;1.00;;;;;;5119684;28;20456;-73
2022/04/01 02:29:20;;;;;;;5.17;4.50;;;4.00;1.00;;;;;;5119828;28;20476;-72
2022/04/01 02:31:50;;;;;;;4.13;3.73;;;4.00;1.00;;;;;;5119443;28;20494;-73
2022/04/01 02:34:17;;;;;;;5.80;4.40;;;3.90;1.00;;;;;;5119059;28;20459;-72
2022/04/01 02:36:44;;;;;;;9.00;4.37;;;3.90;1.00;;;;;;5119663;28;20525;-72
2022/04/01 02:39:11;;;;;;;7.67;4.07;;;3.90;1.00;;;;;;5119951;28;20533;-72
2022/04/01 02:41:37;;;;;;;5.97;4.57;;;3.90;1.00;;;;;;5118782;28;20457;-72
2022/04/01 02:44:12;;;;;;;4.67;3.87;;;3.80;1.00;;;;;;5119150;28;20486;-72
2022/04/01 02:46:41;;;;;;;8.97;4.70;;;3.70;1.00;;;;;;5119044;28;20475;-72
2022/04/01 02:49:10;;;;;;;8.00;4.37;;;3.70;1.00;;;;;;5119128;28;20452;-72
2022/04/01 02:51:39;;;;;;;6.47;4.30;;;3.70;1.00;;;;;;5119053;28;20476;-72
2022/04/01 02:54:06;;;;;;;5.17;4.00;;;3.60;1.00;;;;;;5118630;28;20480;-72
2022/04/01 02:56:34;;;;;;;6.50;3.93;;;3.60;1.00;;;;;;5119435;28;21014;-72
2022/04/01 02:59:01;;;;;;;5.30;4.67;;;3.60;1.00;;;;;;5124190;28;20460;-72
2022/04/01 03:01:29;;;;;;;7.23;4.73;;;3.50;1.00;;;;;;5126008;28;20847;-72
2022/04/01 03:03:56;;;;;;;6.00;4.30;;;3.50;1.00;;;;;;5119895;28;20468;-73
2022/04/01 03:06:25;;;;;;;9.33;5.50;;;3.50;1.00;;;;;;5118830;28;20922;-72
2022/04/01 03:08:51;;;;;;;7.73;4.30;;;3.50;1.00;;;;;;5119967;28;20524;-72
2022/04/01 03:11:18;;;;;;;7.77;4.90;;;3.50;1.00;;;;;;5119922;28;20488;-73
2022/04/01 03:13:45;;;;;;;10.13;4.50;;;3.50;1.00;;;;;;5118963;28;20449;-72
2022/04/01 03:16:12;;;;;;;6.30;4.93;;;3.40;1.00;;;;;;5118035;28;20926;-71
2022/04/01 03:18:40;;;;;;;4.80;4.23;;;3.50;1.00;;;;;;5117169;28;20491;-70
2022/04/01 03:21:08;;;;;;;7.27;4.87;;;3.40;1.00;;;;;;5117907;28;20524;-72
2022/04/01 03:23:37;;;;;;;6.90;5.20;;;3.40;1.00;;;;;;5118249;28;20533;-72
2022/04/01 03:26:04;;;;;;;6.77;4.80;;;3.30;1.00;;;;;;5117789;28;20456;-72
2022/04/01 03:28:31;;;;;;;11.30;5.00;;;3.30;1.00;;;;;;5118028;28;20829;-71
2022/04/01 03:30:57;;;;;;;6.90;4.83;;;3.30;1.00;;;;;;5117774;28;20456;-71
2022/04/01 03:33:25;;;;;;;6.60;4.97;;;3.30;1.00;;;;;;5120297;28;20543;-74
2022/04/01 03:35:52;;;;;;;8.07;4.53;;;3.30;1.00;;;;;;5117861;28;20836;-71
2022/04/01 03:38:18;;;;;;;6.60;5.13;;;3.30;1.00;;;;;;5117870;28;20517;-72
2022/04/01 03:40:49;;;;;;;5.30;4.40;;;3.20;1.00;;;;;;5118045;28;20460;-72
2022/04/01 03:43:16;;;;;;;7.60;4.73;;;3.20;1.00;;;;;;5119558;28;20459;-72
2022/04/01 03:45:46;;;;;;;9.37;4.73;;;3.20;1.00;;;;;;5119271;28;20463;-72
2022/04/01 03:48:18;;;;;;;8.03;5.00;;;3.20;1.00;;;;;;5119585;28;20437;-71
2022/04/01 03:50:49;;;;;;;7.30;4.40;;;3.20;1.00;;;;;;5118220;28;20894;-72
2022/04/01 03:53:18;;;;;;;7.37;4.73;;;3.20;1.00;;;;;;5118228;28;20444;-72
2022/04/01 03:55:48;;;;;;;6.70;4.27;;;3.20;1.00;;;;;;5117828;28;20444;-71
2022/04/01 03:58:16;;;;;;;9.93;5.50;;;3.20;1.00;;;;;;5117512;28;20459;-72
2022/04/01 04:00:43;;;;;;;5.50;4.57;;;3.10;1.00;;;;;;5117184;28;20530;-71
2022/04/01 04:03:11;;;;;;;5.07;3.83;;;3.10;1.00;;;;;;5117362;28;20455;-73
2022/04/01 04:05:39;;;;;;;5.20;4.70;;;3.10;1.00;;;;;;5117131;28;20449;-72
2022/04/01 04:08:07;;;;;;;9.67;4.47;;;3.10;1.00;;;;;;5116934;28;20819;-72
2022/04/01 04:10:35;;;;;;;5.77;4.27;;;3.10;1.00;;;;;;5116735;28;20517;-72
2022/04/01 04:13:06;;;;;;;7.60;4.27;;;3.00;1.00;;;;;;5116620;28;20480;-71
2022/04/01 04:15:40;;;;;;;5.47;4.60;;;3.00;1.00;;;;;;5116886;28;20771;-73
2022/04/01 04:18:11;;;;;;;5.77;4.20;;;3.00;1.00;;;;;;5117937;28;20468;-71
2022/04/01 04:20:43;;;;;;;7.03;4.70;;;3.00;1.00;;;;;;5116903;28;20444;-71
2022/04/01 04:23:17;;;;;;;5.63;4.70;;;3.00;1.00;;;;;;5116639;28;20499;-72
2022/04/01 04:25:53;;;;;;;4.63;3.60;;;3.00;1.00;;;;;;5117029;28;20457;-71
2022/04/01 04:28:28;;;;;;;7.60;4.43;;;3.00;1.00;;;;;;5116818;28;20525;-73
2022/04/01 04:31:03;;;;;;;7.37;4.57;;;3.00;1.00;;;;;;5116809;28;20448;-72
2022/04/01 04:33:31;;;;;;;6.20;4.30;;;3.00;1.00;;;;;;5116736;28;20441;-73
2022/04/01 04:36:04;;;;;;;5.30;4.10;;;3.00;1.00;;;;;;5116844;28;20845;-73
2022/04/01 04:38:36;;;;;;;5.43;4.00;;;3.00;1.00;;;;;;5116717;28;20452;-71
2022/04/01 04:41:08;;;;;;;7.53;4.67;;;2.90;1.00;;;;;;5116755;28;20861;-73
2022/04/01 04:43:39;;;;;;;5.37;4.37;;;2.90;1.00;;;;;;5116289;28;20472;-72
2022/04/01 04:46:06;;;;;;;5.57;4.23;;;2.90;1.00;;;;;;5116534;28;20457;-73
2022/04/01 04:48:34;;;;;;;7.37;4.57;;;2.90;1.00;;;;;;5116304;28;20452;-72
2022/04/01 04:51:02;;;;;;;9.70;5.00;;;2.90;1.00;;;;;;5116050;28;20458;-72
2022/04/01 04:53:31;;;;;;;7.60;4.03;;;2.80;1.00;;;;;;5116126;28;20543;-72
2022/04/01 04:56:00;;;;;;;18.63;11.17;;;2.80;1.00;;;;;;5115477;28;20893;-72
2022/04/01 04:58:34;;;;;;;10.83;6.77;;;2.90;1.00;;;;;;5115974;28;20491;-71
2022/04/01 05:01:07;;;;;;;11.43;5.10;;;2.90;1.00;;;;;;5115791;28;20446;-71
2022/04/01 05:03:55;;;;;;;6.10;3.77;;;2.90;1.00;;;;;;5115919;28;20436;-71
2022/04/01 05:06:28;;;;;;;5.90;4.47;;;2.90;1.00;;;;;;5115564;28;20437;-73
2022/04/01 05:09:01;;;;;;;8.50;4.97;;;2.90;1.00;;;;;;5116191;28;20511;-72
2022/04/01 05:11:44;;;;;;;7.70;4.47;;;2.90;1.00;;;;;;5115519;28;20962;-72
2022/04/01 05:14:30;;;;;;;9.67;4.60;;;2.90;1.00;;;;;;5115842;28;20478;-72
2022/04/01 05:17:01;;;;;;;7.10;4.27;;;2.90;1.00;;;;;;5115556;28;20448;-71
2022/04/01 05:19:30;;;;;;;7.97;4.30;;;2.90;1.00;;;;;;5115771;28;20441;-75
2022/04/01 05:22:02;;;;;;;10.80;4.20;;;2.80;1.00;;;;;;5115520;28;20552;-74
2022/04/01 05:24:42;;;;;;;5.23;3.70;;;2.80;1.00;;;;;;5115890;28;20535;-73
2022/04/01 05:27:25;;;;;;;12.93;8.50;;;2.80;1.00;;;;;;5117501;28;20940;-73
2022/04/01 05:30:01;;;;;;;9.67;6.80;;;2.80;1.00;;;;;;5115782;28;20566;-72
2022/04/01 05:32:33;;;;;;;15.33;5.63;;;2.80;1.00;;;;;;5115469;28;20786;-72
2022/04/01 05:35:01;;;;;;;12.87;4.37;;;2.80;1.00;;;;;;5115002;28;20517;-72
2022/04/01 05:37:29;;;;;;;5.73;4.33;;;2.80;1.00;;;;;;5115264;28;20452;-71
2022/04/01 05:39:56;;;;;;;4.77;4.00;;;2.80;1.00;;;;;;5114664;28;20457;-72
2022/04/01 05:42:26;;;;;;;5.53;3.77;;;2.80;1.00;;;;;;5115167;28;20453;-72
2022/04/01 05:44:53;;;;;;;6.00;4.20;;;2.80;1.00;;;;;;5115316;28;20794;-72
2022/04/01 05:47:24;;;;;;;7.77;3.70;;;2.90;1.00;;;;;;5115159;28;20460;-72
2022/04/01 05:49:57;;;;;;;9.20;3.63;;;2.80;1.00;;;;;;5115672;28;20469;-72
2022/04/01 05:52:25;;;;;;;6.73;4.03;;;2.80;1.00;;;;;;5114910;28;20634;-72
2022/04/01 05:54:52;;;;;;;7.37;3.20;;;2.80;1.00;;;;;;5114976;28;20988;-72
2022/04/01 05:57:20;;;;;;;4.00;3.47;;;2.80;1.00;;;;;;5115878;28;20457;-73
2022/04/01 05:59:48;;;;;;;14.33;3.80;;;2.80;1.00;;;;;;5114997;28;20851;-72
2022/04/01 06:02:37;;;;;;;8.53;4.20;;;2.90;1.00;;;;;;5114948;28;20476;-73
2022/04/01 06:05:15;;;;;;;6.83;3.73;;;2.90;1.00;;;;;;5115361;28;20447;-72
2022/04/01 06:07:50;;;;;;;11.10;5.00;;;3.00;1.00;;;;;;5115345;28;20456;-72
2022/04/01 06:10:24;;;;;;;13.30;5.77;;;3.00;1.00;;;;;;5118077;28;20439;-72
2022/04/01 06:13:04;;;;;;;7.63;4.13;;;3.00;1.00;;;;;;5115498;28;20533;-72
2022/04/01 06:15:38;;;;;;;8.70;3.70;;;3.10;1.00;;;;;;5115946;28;20456;-72
2022/04/01 06:18:14;;;;;;;4.23;3.50;;;3.10;1.00;;;;;;5115750;28;20496;-71
2022/04/01 06:20:46;;;;;;;10.23;4.00;;;3.20;1.00;;;;;;5115048;28;20445;-72
2022/04/01 06:23:20;;;;;;;5.83;3.23;;;3.20;1.00;;;;;;5115218;28;20467;-71
2022/04/01 06:25:52;;;;;;;4.40;3.53;;;3.20;1.00;;;;;;5115338;28;20440;-71
2022/04/01 06:28:24;;;;;;;6.37;3.57;;;3.20;1.00;;;;;;5115070;28;20447;-71
2022/04/01 06:30:53;;;;;;;8.50;4.17;;;3.20;1.00;;;;;;5115012;28;20891;-73
2022/04/01 06:33:30;;;;;;;4.70;3.60;;;3.30;1.00;;;;;;5115530;28;20486;-73
2022/04/01 06:36:01;;;;;;;5.47;3.83;;;3.30;1.00;;;;;;5115919;28;20440;-71
2022/04/01 06:38:37;;;;;;;4.13;2.50;;;3.40;1.00;;;;;;5118004;28;20891;-74
2022/04/01 06:41:07;;;;;;;12.73;3.27;;;3.50;1.00;;;;;;5116292;28;20447;-73
2022/04/01 06:43:35;;;;;;;5.50;3.33;;;3.50;1.00;;;;;;5114979;28;20461;-72
2022/04/01 06:46:02;;;;;;;9.33;4.57;;;3.60;1.00;;;;;;5114476;28;20467;-72
2022/04/01 06:48:29;;;;;;;13.80;3.83;;;3.70;1.00;;;;;;5114710;28;20456;-72
2022/04/01 06:50:58;;;;;;;8.60;3.67;;;3.70;1.00;;;;;;5115017;28;20489;-71
2022/04/01 06:53:26;;;;;;;4.87;3.60;;;3.70;1.00;;;;;;5118702;28;20486;-71
2022/04/01 06:55:53;;;;;;;11.20;4.07;;;3.80;1.00;;;;;;5118773;28;20783;-71
2022/04/01 06:58:20;;;;;;;10.23;3.60;;;3.90;1.00;;;;;;5118327;28;20906;-71
2022/04/01 07:00:47;;;;;;;6.97;3.47;;;4.00;1.00;;;;;;5118389;28;20453;-72
2022/04/01 07:03:14;;;;;;;11.50;3.67;;;4.00;1.00;;;;;;5117953;28;20922;-72
2022/04/01 07:05:41;;;;;;;8.90;3.60;;;4.00;1.00;;;;;;5117939;28;20930;-72
2022/04/01 07:08:09;;;;;;;6.37;3.13;;;4.10;1.00;;;;;;5118101;28;20957;-72
2022/04/01 07:10:36;;;;;;;5.43;3.70;;;4.10;1.00;;;;;;5118201;28;20795;-72
2022/04/01 07:13:03;;;;;;;7.80;3.43;;;4.10;1.00;;;;;;5117791;28;20814;-72
2022/04/01 07:15:30;;;;;;;4.93;3.37;;;4.00;1.00;;;;;;5118115;28;20536;-72
2022/04/01 07:17:58;;;;;;;6.60;3.10;;;4.00;1.00;;;;;;5117838;28;20738;-72
2022/04/01 07:20:26;;;;;;;5.10;3.33;;;4.10;1.00;;;;;;5117933;28;20457;-73
2022/04/01 07:22:53;;;;;;;6.40;2.93;;;4.10;1.00;;;;;;5117793;28;20531;-72
2022/04/01 07:25:23;;;;;;;8.37;5.00;;;4.20;1.00;;;;;;5117925;28;20525;-73
2022/04/01 07:27:50;;;;;;;9.23;3.30;;;4.30;1.00;;;;;;5117510;28;20457;-73
2022/04/01 07:30:17;;;;;;;6.20;3.70;;;4.40;1.00;;;;;;5118136;28;20774;-72
2022/04/01 07:32:44;;;;;;;6.30;3.03;;;4.50;1.00;;;;;;5117737;28;20484;-72
2022/04/01 07:35:13;;;;;;;6.20;3.53;;;4.60;1.00;;;;;;5117628;28;20453;-72
2022/04/01 07:37:41;;;;;;;6.40;3.27;;;4.60;1.00;;;;;;5118235;28;20453;-72
2022/04/01 07:40:10;;;;;;;7.87;3.53;;;4.60;1.00;;;;;;5117178;28;20452;-72
2022/04/01 07:42:39;;;;;;;5.73;3.00;;;4.70;1.00;;;;;;5116891;28;20461;-72
2022/04/01 07:45:07;;;;;;;11.07;3.30;;;4.70;1.00;;;;;;5117548;28;20848;-72
2022/04/01 07:47:36;;;;;;;6.90;3.17;;;4.70;1.00;;;;;;5117028;28;20452;-76
2022/04/01 07:50:04;;;;;;;3.40;3.00;;;4.70;1.00;;;;;;5117334;28;20457;-73
2022/04/01 07:52:33;;;;;;;6.60;3.57;;;4.90;1.00;;;;;;5117496;28;20468;-72
2022/04/01 07:55:00;;;;;;;4.43;3.50;;;5.00;1.00;;;;;;5116512;28;20825;-72
2022/04/01 07:57:27;;;;;;;6.93;3.43;;;5.10;1.00;;;;;;5117331;28;20467;-72
2022/04/01 07:59:55;;;;;;;4.17;3.00;;;5.10;1.00;;;;;;5117614;28;20533;-72
2022/04/01 08:02:21;;;;;;;6.20;3.60;;;5.20;1.00;;;;;;5117134;28;20452;-72
2022/04/01 08:04:48;;;;;;;9.60;2.80;;;5.20;1.00;;;;;;5116769;28;20461;-73
2022/04/01 08:07:15;;;;;;;13.60;3.20;;;5.30;1.00;;;;;;5117427;28;20650;-73
2022/04/01 08:09:42;;;;;;;12.00;4.60;;;5.40;1.00;;;;;;5116937;28;20456;-72
2022/04/01 08:12:09;;;;;;;20.47;3.33;;;5.40;1.00;;;;;;5116775;28;20518;-72
2022/04/01 08:14:37;;;;;;;11.77;3.67;;;5.40;1.00;;;;;;5116941;28;20559;-73
2022/04/01 08:17:06;;;;;;;8.60;5.30;;;5.50;1.00;;;;;;5117635;28;20457;-72
2022/04/01 08:19:33;;;;;;;9.57;2.80;;;5.60;1.00;;;;;;5117859;28;20517;-72
2022/04/01 08:22:00;;;;;;;43.27;23.73;;;5.80;1.00;;;;;;5117666;28;20456;-72
2022/04/01 08:24:27;;;;;;;24.97;13.67;;;5.80;1.00;;;;;;5116754;28;20535;-72
2022/04/01 08:26:55;;;;;;;8.40;3.13;;;5.90;1.00;;;;;;5116360;28;20449;-72
2022/04/01 08:29:22;;;;;;;5.43;3.17;;;6.00;1.00;;;;;;5116700;28;20482;-72
2022/04/01 08:31:49;;;;;;;5.10;2.80;;;6.10;1.00;;;;;;5116407;28;20513;-71
2022/04/01 08:34:17;;;;;;;4.50;2.67;;;6.20;1.00;;;;;;5116180;28;20967;-72
2022/04/01 08:36:44;;;;;;;3.27;2.40;;;6.30;1.00;;;;;;5115862;28;20931;-71
2022/04/01 08:39:10;;;;;;;6.53;2.77;;;6.40;1.00;;;;;;5116430;28;20456;-71
2022/04/01 08:41:37;;;;;;;6.53;2.90;;;6.50;1.00;;;;;;5115867;28;21000;-71
2022/04/01 08:44:04;;;;;;;7.47;3.43;;;6.50;1.00;;;;;;5116090;28;20464;-72
2022/04/01 08:46:31;;;;;;;6.53;2.97;;;6.50;1.00;;;;;;5116329;28;20456;-72
2022/04/01 08:48:58;;;;;;;5.00;2.90;;;6.60;1.00;;;;;;5116012;28;20479;-72
2022/04/01 08:51:27;;;;;;;11.70;2.80;;;6.70;1.00;;;;;;5115969;28;20480;-72
2022/04/01 08:53:53;;;;;;;9.67;4.50;;;6.80;1.00;;;;;;5115330;28;20491;-72
2022/04/01 08:56:21;;;;;;;14.30;5.90;;;6.80;1.00;;;;;;5115917;28;20814;-73
2022/04/01 08:58:48;;;;;;;5.90;3.20;;;6.80;1.00;;;;;;5116060;28;20464;-72
2022/04/01 09:01:16;;;;;;;6.93;3.20;;;6.90;1.00;;;;;;5116987;28;20793;-73
2022/04/01 09:03:43;;;;;;;3.83;3.20;;;7.00;1.00;;;;;;5116231;28;20456;-72
2022/04/01 09:06:11;;;;;;;8.97;3.57;;;7.10;1.00;;;;;;5116284;28;20471;-73
2022/04/01 09:08:42;;;;;;;50.07;26.13;;;7.10;1.00;;;;;;5115696;28;20502;-73
2022/04/01 09:11:11;;;;;;;6.43;3.03;;;7.20;1.00;;;;;;5116082;28;20456;-72
2022/04/01 09:13:50;;;;;;;6.33;2.70;;;7.30;1.00;;;;;;5116626;28;20496;-71
2022/04/01 09:16:27;;;;;;;4.03;2.73;;;7.20;1.00;;;;;;5117543;28;20437;-71
2022/04/01 09:18:55;;;;;;;3.87;3.10;;;7.30;1.00;;;;;;5118090;28;20907;-72
2022/04/01 09:21:27;;;;;;;7.37;2.50;;;7.40;1.00;;;;;;5101610;28;20458;-72
2022/04/01 09:23:55;;;;;;;4.67;2.23;;;7.40;1.00;;;;;;5118624;28;20498;-72
2022/04/01 09:26:29;;;;;;;5.00;3.53;;;7.40;1.00;;;;;;5116857;28;20452;-72
2022/04/01 09:28:59;;;;;;;11.07;3.60;;;7.40;1.00;;;;;;5115864;28;20445;-72
2022/04/01 09:31:31;;;;;;;6.03;2.97;;;7.30;1.00;;;;;;5116076;28;20440;-73
2022/04/01 09:33:59;;;;;;;3.10;2.70;;;7.30;1.00;;;;;;5115837;28;20929;-72
2022/04/01 09:36:29;;;;;;;9.43;2.57;;;7.40;1.00;;;;;;5115595;28;20492;-73
2022/04/01 09:39:00;;;;;;;3.70;3.30;;;7.50;1.00;;;;;;5115143;28;20541;-72
2022/04/01 09:41:32;;;;;;;5.83;2.87;;;7.60;1.00;;;;;;5115599;28;20475;-72
2022/04/01 09:44:10;;;;;;;3.80;2.83;;;7.70;1.00;;;;;;5115763;28;20452;-74
2022/04/01 09:46:42;;;;;;;3.10;2.57;;;7.80;1.00;;;;;;5115978;28;20456;-71
2022/04/01 09:49:09;;;;;;;11.50;3.40;;;7.70;1.00;;;;;;5115318;28;20583;-73
2022/04/01 09:51:40;;;;;;;6.33;3.20;;;7.70;1.00;;;;;;5115417;28;20474;-71
2022/04/01 09:54:08;;;;;;;17.60;3.37;;;7.70;1.00;;;;;;5115393;28;20492;-71
2022/04/01 09:56:40;;;;;;;7.53;2.73;;;7.60;1.00;;;;;;5114940;28;20447;-72
2022/04/01 09:59:09;;;;;;;4.70;3.13;;;7.60;1.00;;;;;;5115118;28;20838;-72
2022/04/01 10:01:39;;;;;;;6.70;4.07;;;7.70;1.00;;;;;;5115164;28;20492;-72
2022/04/01 10:04:06;;;;;;;6.37;3.63;;;7.70;1.00;;;;;;5114755;28;20463;-70
2022/04/01 10:06:35;;;;;;;3.53;2.73;;;7.80;1.00;;;;;;5115403;28;20453;-71
2022/04/01 10:09:05;;;;;;;3.77;3.23;;;7.80;1.00;;;;;;5115322;28;20483;-72
2022/04/01 10:11:35;;;;;;;6.07;3.50;;;7.80;1.00;;;;;;5114907;28;20448;-72
2022/04/01 10:14:04;;;;;;;6.73;3.20;;;7.80;1.00;;;;;;5115160;28;20567;-71
2022/04/01 10:16:34;;;;;;;9.00;2.50;;;7.60;1.00;;;;;;5114999;28;20863;-72
2022/04/01 10:19:05;;;;;;;6.10;3.57;;;7.70;1.00;;;;;;5114479;28;20462;-71
2022/04/01 10:21:33;;;;;;;7.20;4.23;;;7.70;1.00;;;;;;5115092;28;20441;-72
2022/04/01 10:24:07;;;;;;;10.10;3.30;;;7.90;1.00;;;;;;5115044;28;20489;-72
2022/04/01 10:26:38;;;;;;;4.87;3.17;;;8.10;1.00;;;;;;5116368;28;20451;-71
2022/04/01 10:29:05;;;;;;;7.23;3.13;;;8.20;1.00;;;;;;5119436;28;20440;-71
2022/04/01 10:31:32;;;;;;;4.63;3.23;;;8.40;1.00;;;;;;5120367;28;20552;-71
2022/04/01 10:34:20;;;;;;;3.80;3.10;;;8.50;1.00;;;;;;5120655;28;20494;-71
2022/04/01 10:36:54;;;;;;;4.57;2.60;;;8.60;1.00;;;;;;5123887;28;20911;-71
2022/04/01 10:39:21;;;;;;;8.03;3.00;;;8.70;1.00;;;;;;5119369;28;20432;-71
2022/04/01 10:42:08;;;;;;;7.63;3.03;;;8.80;1.00;;;;;;5118284;28;20448;-71
2022/04/01 10:44:48;;;;;;;3.87;2.73;;;8.80;1.00;;;;;;5119272;28;20438;-71
2022/04/01 10:47:16;;;;;;;6.27;3.00;;;8.90;1.00;;;;;;5118038;28;20495;-71
2022/04/01 10:52:29;;;;;;;12.90;3.43;;;8.90;1.00;;;;;;5118197;28;20428;-72
2022/04/01 10:55:09;;;;;;;5.53;3.80;;;9.00;1.00;;;;;;5117924;28;20576;-72
2022/04/01 10:57:43;;;;;;;3.67;2.40;;;8.90;1.00;;;;;;5118043;28;20440;-71
2022/04/01 11:00:14;;;;;;;6.20;2.87;;;9.10;1.00;;;;;;5118180;28;20476;-71
2022/04/01 11:02:42;;;;;;;4.13;2.73;;;9.20;1.00;;;;;;5118116;28;20448;-70
2022/04/01 11:05:23;;;;;;;6.80;2.77;;;9.20;1.00;;;;;;5118106;28;20463;-71
2022/04/01 11:08:15;;;;;;;8.07;2.70;;;9.20;1.00;;;;;;5117746;28;20448;-71
2022/04/01 11:11:08;;;;;;;3.60;2.77;;;9.00;1.00;;;;;;5118710;28;20448;-71
2022/04/01 11:13:38;;;;;;;3.37;2.70;;;8.80;1.00;;;;;;5119612;28;20957;-71
2022/04/01 11:16:15;;;;;;;2.80;2.40;;;8.90;1.00;;;;;;5118165;28;20452;-73
2022/04/01 11:19:14;;;;;;;24.13;11.00;;;9.00;1.00;;;;;;5117833;28;20468;-72
2022/04/01 11:21:42;;;;;;;10.77;6.00;;;9.20;1.00;;;;;;5117651;28;20437;-71
2022/04/01 11:24:33;;;;;;;4.00;3.43;;;9.50;1.00;;;;;;5117775;28;20460;-72
2022/04/01 11:27:07;;;;;;;4.63;2.60;;;9.60;1.00;;;;;;5117147;28;20429;-72
2022/04/01 11:29:35;;;;;;;5.80;2.60;;;9.50;1.00;;;;;;5117655;28;20463;-70
2022/04/01 11:32:06;;;;;;;3.30;2.53;;;9.50;1.00;;;;;;5117302;28;20910;-70
2022/04/01 11:34:33;;;;;;;6.17;2.70;;;9.60;1.00;;;;;;5117159;28;20465;-72
2022/04/01 11:37:07;;;;;;;4.80;3.13;;;9.70;1.00;;;;;;5117052;28;20455;-73
2022/04/01 11:39:36;;;;;;;7.20;4.00;;;9.90;1.00;;;;;;5116937;28;20457;-71
2022/04/01 11:42:04;;;;;;;20.13;13.37;;;10.20;1.00;;;;;;5117215;28;20453;-71
2022/04/01 11:44:32;;;;;;;6.03;2.57;;;10.40;1.00;;;;;;5117480;28;20452;-71
2022/04/01 11:47:00;;;;;;;3.80;2.77;;;10.40;1.00;;;;;;5117418;28;20453;-71
2022/04/01 11:49:28;;;;;;;3.80;2.40;;;10.50;1.00;;;;;;5116779;28;20460;-71
2022/04/01 11:51:55;;;;;;;5.00;2.60;;;10.40;1.00;;;;;;5117039;28;20475;-71
2022/04/01 11:54:22;;;;;;;2.63;2.10;;;10.50;1.00;;;;;;5116416;28;20499;-72
2022/04/01 11:56:55;;;;;;;4.70;2.30;;;10.50;1.00;;;;;;5117170;28;20463;-70
2022/04/01 11:59:25;;;;;;;8.87;4.40;;;11.00;1.00;;;;;;5117077;28;20448;-72
2022/04/01 12:01:58;;;;;;;2.70;2.50;;;11.40;1.00;;;;;;5116670;28;20902;-70
2022/04/01 12:04:32;;;;;;;8.73;2.63;;;11.80;1.00;;;;;;5116738;28;20452;-70
2022/04/01 12:09:44;;;;;;;11.00;2.83;;;12.40;1.00;;;;;;5117315;28;20505;-72
2022/04/01 12:12:11;;;;;;;3.50;2.57;;;12.80;1.00;;;;;;5117106;28;20479;-72
2022/04/01 12:14:39;;;;;;;6.47;2.40;;;13.00;1.00;;;;;;5117722;28;20520;-72
2022/04/01 12:17:07;;;;;;;9.23;2.90;;;13.00;1.00;;;;;;5121095;28;20460;-72
2022/04/01 12:19:35;;;;;;;5.67;3.07;;;12.80;1.00;;;;;;5119373;28;20457;-71
2022/04/01 12:22:03;;;;;;;6.10;2.13;;;12.90;1.00;;;;;;5116725;28;20914;-72
2022/04/01 12:24:31;;;;;;;5.50;2.53;;;13.00;1.00;;;;;;5116957;28;20464;-73
2022/04/01 12:26:59;;;;;;;7.63;2.37;;;13.30;1.00;;;;;;5116893;28;20772;-71
2022/04/01 12:29:27;;;;;;;8.70;2.37;;;13.40;1.00;;;;;;5116265;28;20460;-72
2022/04/01 12:31:56;;;;;;;3.87;2.57;;;13.30;1.00;;;;;;5116634;28;20460;-72
2022/04/01 12:34:23;;;;;;;3.57;2.30;;;13.20;1.00;;;;;;5116165;28;20487;-72
2022/04/01 12:37:01;;;;;;;5.37;2.40;;;13.00;1.00;;;;;;5115696;28;20563;-72
2022/04/01 12:39:29;;;;;;;3.50;2.10;;;13.10;1.00;;;;;;5116460;28;20476;-73
2022/04/01 12:41:57;;;;;;;5.13;2.27;;;13.30;1.00;;;;;;5115601;28;20461;-72
2022/04/01 12:44:26;;;;;;;3.40;2.77;;;13.40;1.00;;;;;;5116381;28;20805;-72
2022/04/01 12:46:54;;;;;;;5.57;2.47;;;13.70;1.00;;;;;;5116286;28;20456;-72
2022/04/01 12:49:23;;;;;;;6.00;2.30;;;13.80;1.00;;;;;;5115816;28;20459;-72
2022/04/01 12:51:55;;;;;;;3.80;2.03;;;14.00;1.00;;;;;;5116436;28;20468;-71
2022/04/01 12:54:35;;;;;;;8.07;2.67;;;13.70;1.00;;;;;;5116219;28;20520;-71
2022/04/01 12:57:04;;;;;;;8.33;3.50;;;13.70;1.00;;;;;;5116318;28;20533;-73
2022/04/01 12:59:36;;;;;;;4.70;2.70;;;14.00;1.00;;;;;;5115693;28;20456;-73
2022/04/01 13:02:07;;;;;;;4.40;2.43;;;14.40;1.00;;;;;;5116180;28;20448;-72
2022/04/01 13:04:42;;;;;;;6.17;2.40;;;14.60;1.00;;;;;;5115582;28;20455;-71
2022/04/01 13:07:13;;;;;;;3.70;2.60;;;15.00;1.00;;;;;;5115562;28;20854;-72
2022/04/01 13:09:55;;;;;;;7.70;2.30;;;15.20;1.00;;;;;;5115651;28;20498;-72
2022/04/01 13:12:25;;;;;;;6.07;2.23;;;14.80;1.00;;;;;;5115552;28;20480;-72
2022/04/01 13:15:01;;;;;;;3.70;2.37;;;14.40;1.00;;;;;;5114783;28;20971;-73
2022/04/01 13:17:28;;;;;;;11.83;6.20;;;14.00;1.00;;;;;;5115364;28;20440;-72
2022/04/01 13:19:55;;;;;;;5.40;2.77;;;13.80;1.00;;;;;;5115295;28;20453;-72
2022/04/01 13:22:22;;;;;;;4.90;2.80;;;13.70;1.00;;;;;;5115455;28;20452;-72
2022/04/01 13:24:50;;;;;;;7.10;2.70;;;13.80;1.00;;;;;;5115387;28;20484;-73
2022/04/01 13:27:20;;;;;;;2.93;2.00;;;14.10;1.00;;;;;;5115293;28;20456;-71